Time;durP1;ratioP1;P1;durP2;ratioP2;P2;SDS_P1;SDS_P2;PMS_P1;PMS_P2;Temp;Humidity;BMP_temperature;BMP_pressure;BME280_temperature;BME280_humidity;BME280_pressure;Samples;Min_cycle;Max_cycle;Signal;HPM_P1;HPM_P2
2022/06/26 00:02:44;;;;;;;0.80;0.60;;;;;;;21.04;62.18;96493.63;10366647;28;20042;-20
2022/06/26 00:07:45;;;;;;;1.08;0.50;;;;;;;20.90;62.15;96490.41;10367259;28;20053;-20
2022/06/26 00:12:46;;;;;;;2.22;0.60;;;;;;;20.81;61.92;96490.50;10366451;28;20040;-23
2022/06/26 00:17:46;;;;;;;0.50;0.40;;;;;;;20.74;61.84;96500.78;10366817;28;20583;-21
2022/06/26 00:22:47;;;;;;;0.33;0.23;;;;;;;20.71;61.82;96488.94;10365840;28;20292;-21
2022/06/26 00:27:47;;;;;;;0.60;0.43;;;;;;;20.69;61.81;96483.03;10365973;28;20890;-20
2022/06/26 00:32:48;;;;;;;0.60;0.37;;;;;;;20.66;61.96;96498.34;10364013;28;20046;-21
2022/06/26 00:37:48;;;;;;;0.83;0.70;;;;;;;20.79;63.53;96494.78;10371126;28;20036;-21
2022/06/26 00:42:49;;;;;;;4.25;1.00;;;;;;;21.05;67.80;96499.59;10373262;28;20315;-20
2022/06/26 00:47:50;;;;;;;0.30;0.30;;;;;;;21.04;62.29;96500.44;10436904;28;20029;-19
2022/06/26 00:52:51;;;;;;;1.10;0.43;;;;;;;20.85;62.49;96492.16;10430560;28;20041;-20
2022/06/26 00:57:52;;;;;;;1.05;0.30;;;;;;;20.77;62.00;96481.25;10402028;28;20038;-20
2022/06/26 01:02:52;;;;;;;0.50;0.32;;;;;;;20.73;62.05;96486.41;10371698;28;20489;-20
2022/06/26 01:07:53;;;;;;;1.02;0.30;;;;;;;20.70;61.94;96479.63;10373233;28;20420;-20
2022/06/26 01:12:54;;;;;;;0.50;0.30;;;;;;;20.65;62.08;96471.22;10372851;28;20436;-20
2022/06/26 01:17:55;;;;;;;0.65;0.40;;;;;;;20.63;61.93;96470.38;10372241;28;20091;-21
2022/06/26 01:23:00;;;;;;;0.73;0.70;;;;;;;20.82;64.48;96474.38;10372134;28;20033;-21
2022/06/26 01:28:00;;;;;;;3.22;1.10;;;;;;;21.08;67.56;96500.38;10371214;28;20176;-21
2022/06/26 01:33:01;;;;;;;0.93;0.50;;;;;;;21.00;62.88;96489.47;10371515;28;20451;-20
2022/06/26 01:38:11;;;;;;;2.03;0.60;;;;;;;20.86;62.58;96488.78;10370775;28;20037;-20
2022/06/26 01:43:13;;;;;;;1.85;0.30;;;;;;;20.78;62.21;96502.44;10369566;28;20137;-20
2022/06/26 01:48:15;;;;;;;0.70;0.40;;;;;;;20.73;62.24;96494.84;10438797;28;20553;-20
2022/06/26 01:53:16;;;;;;;0.28;0.28;;;;;;;20.70;61.89;96499.13;10421818;28;20057;-20
2022/06/26 01:58:16;;;;;;;0.40;0.40;;;;;;;20.67;62.21;96497.50;10397903;28;20117;-20
2022/06/26 02:03:18;;;;;;;3.15;0.55;;;;;;;20.66;62.13;96503.44;10369145;28;20546;-21
2022/06/26 02:08:20;;;;;;;3.33;1.00;;;;;;;20.81;65.98;96505.78;10370210;28;20033;-23
2022/06/26 02:18:44;;;;;;;0.40;0.40;;;;;;;20.97;62.94;96481.84;10385759;28;20033;-20
2022/06/26 02:23:46;;;;;;;0.40;0.40;;;;;;;20.86;62.80;96481.16;10370143;28;20493;-20
2022/06/26 02:28:47;;;;;;;0.40;0.40;;;;;;;20.74;62.24;96473.66;10369017;28;20100;-20
2022/06/26 02:33:48;;;;;;;0.70;0.43;;;;;;;20.72;62.25;96469.44;10368304;28;20489;-20
2022/06/26 02:38:48;;;;;;;0.65;0.32;;;;;;;20.69;62.06;96464.38;10368557;28;20092;-20
2022/06/26 02:43:49;;;;;;;2.10;0.40;;;;;;;20.66;62.10;96462.75;10384147;28;20065;-22
2022/06/26 02:48:49;;;;;;;0.70;0.30;;;;;;;20.64;62.08;96461.91;10446803;28;20326;-21
2022/06/26 02:53:51;;;;;;;0.85;0.73;;;;;;;20.86;66.93;96467.59;10415832;28;20553;-22
2022/06/26 02:58:51;;;;;;;1.80;1.10;;;;;;;21.03;66.51;96470.75;10387989;28;20145;-21
2022/06/26 03:03:52;;;;;;;0.90;0.70;;;;;;;20.93;62.79;96475.13;10366780;28;20026;-21
2022/06/26 03:08:52;;;;;;;0.50;0.50;;;;;;;20.85;62.87;96479.44;10367505;28;20299;-21
2022/06/26 03:13:52;;;;;;;0.50;0.40;;;;;;;20.77;62.27;96481.25;10366898;28;20296;-21
2022/06/26 03:18:53;;;;;;;0.57;0.40;;;;;;;20.72;62.33;96470.28;10368763;28;20034;-21
2022/06/26 03:24:03;;;;;;;1.27;0.47;;;;;;;20.69;62.07;96483.03;10366298;28;20037;-21
2022/06/26 03:29:05;;;;;;;0.95;0.70;;;;;;;20.66;62.36;96483.09;10366379;28;20037;-20
2022/06/26 03:34:08;;;;;;;0.60;0.40;;;;;;;20.64;62.10;96489.06;10367099;28;20034;-20
2022/06/26 03:39:08;;;;;;;2.28;1.00;;;;;;;20.82;66.12;96471.84;10367692;28;20499;-20
2022/06/26 03:44:11;;;;;;;1.48;0.90;;;;;;;20.97;65.64;96458.94;10367900;28;20030;-22
2022/06/26 03:49:11;;;;;;;0.60;0.47;;;;;;;20.91;62.99;96461.59;10449598;28;20461;-21
2022/06/26 03:54:13;;;;;;;2.40;0.60;;;;;;;20.82;62.70;96461.66;10388654;28;20423;-20
2022/06/26 03:59:13;;;;;;;0.70;0.60;;;;;;;20.77;62.26;96460.91;10365493;28;20037;-21
2022/06/26 04:04:14;;;;;;;0.60;0.60;;;;;;;20.72;62.21;96467.72;10365538;28;20040;-20
2022/06/26 04:09:14;;;;;;;1.00;0.40;;;;;;;20.70;62.32;96466.91;10366370;28;20026;-20
2022/06/26 04:14:15;;;;;;;0.43;0.43;;;;;;;20.70;62.34;96483.88;10374034;28;20040;-20
2022/06/26 04:19:15;;;;;;;1.23;0.40;;;;;;;20.65;62.21;96478.84;10375941;28;20034;-20
2022/06/26 04:24:16;;;;;;;0.90;0.70;;;;;;;20.71;64.79;96463.50;10377756;28;20343;-20
2022/06/26 04:29:16;;;;;;;0.70;0.70;;;;;;;20.94;65.15;96450.50;10374161;28;20054;-20
2022/06/26 04:34:17;;;;;;;0.90;0.50;;;;;;;20.94;64.66;96471.72;10389046;28;20045;-20
2022/06/26 04:39:17;;;;;;;0.60;0.50;;;;;;;20.84;62.51;96465.03;10388169;28;20159;-20
2022/06/26 04:44:18;;;;;;;0.35;0.35;;;;;;;20.76;62.39;96451.59;10376228;28;20375;-21
2022/06/26 04:49:24;;;;;;;0.30;0.30;;;;;;;20.70;62.25;96427.91;10454834;28;20060;-20
2022/06/26 04:54:24;;;;;;;0.40;0.40;;;;;;;20.69;62.06;96437.25;10393345;28;20132;-20
2022/06/26 04:59:26;;;;;;;1.88;0.40;;;;;;;20.66;62.31;96429.66;10371579;28;20311;-20
2022/06/26 05:04:34;;;;;;;2.50;0.32;;;;;;;20.66;62.14;96433.91;10371202;28;20049;-20
2022/06/26 05:09:53;;;;;;;0.90;0.50;;;;;;;20.72;63.28;96439.75;10373249;28;20042;-20
2022/06/26 05:14:54;;;;;;;1.25;0.70;;;;;;;20.95;65.69;96432.69;10372539;28;20436;-20
2022/06/26 05:20:06;;;;;;;1.40;0.75;;;;;;;20.95;64.69;96442.84;10388056;28;20195;-20
2022/06/26 05:25:06;;;;;;;0.57;0.50;;;;;;;20.86;62.55;96443.00;10371098;28;20476;-21
2022/06/26 05:30:08;;;;;;;0.45;0.40;;;;;;;20.76;62.23;96441.41;10375552;28;20033;-20
2022/06/26 05:35:13;;;;;;;1.13;0.50;;;;;;;20.77;62.09;96454.94;10370051;28;20061;-20
2022/06/26 05:40:14;;;;;;;1.33;0.47;;;;;;;20.73;62.11;96456.69;10371341;28;20037;-21
2022/06/26 05:45:15;;;;;;;0.63;0.63;;;;;;;20.71;62.33;96457.59;10406887;28;20669;-19
2022/06/26 05:50:32;;;;;;;0.57;0.50;;;;;;;20.72;62.62;96465.19;10450004;28;20040;-20
2022/06/26 05:55:46;;;;;;;0.80;0.75;;;;;;;20.71;62.40;96468.59;10410325;28;20500;-20
2022/06/26 06:01:18;;;;;;;1.10;0.77;;;;;;;21.04;65.92;96468.19;10365593;28;20046;-23
2022/06/26 06:06:21;;;;;;;1.10;0.70;;;;;;;21.30;65.55;96471.19;10369704;28;20029;-20
2022/06/26 06:11:21;;;;;;;1.10;1.00;;;;;;;21.27;65.77;96472.94;10369561;28;20029;-20
2022/06/26 06:16:22;;;;;;;2.03;0.50;;;;;;;21.02;64.25;96475.00;10384727;28;20132;-20
2022/06/26 06:21:22;;;;;;;2.13;0.60;;;;;;;20.87;63.23;96459.94;10370034;28;20795;-22
2022/06/26 06:26:25;;;;;;;0.38;0.30;;;;;;;20.79;62.55;96453.25;10368686;28;20117;-20
2022/06/26 06:31:27;;;;;;;1.00;0.80;;;;;;;21.14;66.94;96454.44;10369282;28;20087;-20
2022/06/26 06:36:27;;;;;;;0.68;0.60;;;;;;;21.26;67.31;96478.91;10367774;28;20034;-20
2022/06/26 06:41:28;;;;;;;2.28;0.90;;;;;;;21.32;67.31;96474.53;10385381;28;20061;-21
2022/06/26 06:46:36;;;;;;;6.07;0.98;;;;;;;21.19;65.61;96493.44;10426499;28;20025;-21
2022/06/26 06:51:54;;;;;;;2.78;0.73;;;;;;;21.33;65.16;96516.16;10422856;28;20030;-20
2022/06/26 06:56:54;;;;;;;2.30;1.03;;;;;;;21.44;64.99;96520.22;10368776;28;20034;-21
2022/06/26 07:01:55;;;;;;;2.95;1.00;;;;;;;21.44;67.08;96515.13;10383723;28;20415;-19
2022/06/26 07:06:55;;;;;;;1.92;1.10;;;;;;;21.59;68.02;96519.16;10368154;28;20112;-21
2022/06/26 07:11:56;;;;;;;1.83;1.30;;;;;;;21.51;69.11;96529.47;10383539;28;20069;-21
2022/06/26 07:16:56;;;;;;;2.67;1.58;;;;;;;21.47;68.89;96548.19;10424776;28;20022;-21
2022/06/26 07:21:57;;;;;;;2.03;1.45;;;;;;;21.54;67.95;96542.16;10425409;28;20044;-21
2022/06/26 07:26:57;;;;;;;1.50;1.40;;;;;;;21.57;68.20;96554.00;10423520;28;20495;-20
2022/06/26 07:31:58;;;;;;;3.17;1.33;;;;;;;21.51;68.77;96556.63;10366332;28;20038;-20
2022/06/26 07:36:58;;;;;;;1.45;1.35;;;;;;;21.65;68.60;96572.59;10365413;28;20038;-20
2022/06/26 07:41:59;;;;;;;4.47;1.75;;;;;;;21.59;68.57;96576.06;10382607;28;20460;-20
2022/06/26 07:47:04;;;;;;;3.08;1.63;;;;;;;21.47;68.85;96580.47;10414967;28;20395;-21
2022/06/26 07:52:40;;;;;;;2.40;1.70;;;;;;;21.47;69.29;96581.31;10415353;28;20500;-21
2022/06/26 07:57:40;;;;;;;4.97;1.63;;;;;;;21.45;68.53;96577.94;10386264;28;20041;-20
2022/06/26 08:02:41;;;;;;;1.63;1.43;;;;;;;21.59;68.89;96586.25;10366501;28;20045;-21
2022/06/26 08:07:41;;;;;;;1.63;1.53;;;;;;;21.62;68.94;96586.19;10367008;28;20080;-21
2022/06/26 08:12:42;;;;;;;2.92;2.15;;;;;;;21.60;68.87;96598.13;10365679;28;20048;-21
2022/06/26 08:17:42;;;;;;;3.03;1.93;;;;;;;21.42;68.94;96577.13;10366390;28;20068;-20
2022/06/26 08:22:42;;;;;;;4.47;1.80;;;;;;;21.45;68.84;96592.38;10365571;28;20125;-21
2022/06/26 08:27:43;;;;;;;2.10;1.90;;;;;;;21.26;67.21;96575.66;10366613;28;20026;-22
2022/06/26 08:32:43;;;;;;;9.43;2.50;;;;;;;21.55;69.19;96594.78;10383053;28;20699;-21
2022/06/26 08:37:45;;;;;;;4.17;1.87;;;;;;;21.44;69.56;96589.00;10423876;28;20094;-20
2022/06/26 08:42:52;;;;;;;6.13;1.60;;;;;;;21.37;67.10;96583.97;10416696;28;20104;-22
2022/06/26 08:47:54;;;;;;;1.98;1.50;;;;;;;21.23;66.15;96594.34;10429300;28;20075;-21
2022/06/26 08:52:59;;;;;;;4.82;1.80;;;;;;;21.39;68.80;96585.66;10401436;28;20044;-20
2022/06/26 08:58:00;;;;;;;4.40;1.58;;;;;;;21.41;69.45;96586.47;10402624;28;20079;-20
2022/06/26 09:03:00;;;;;;;3.45;1.95;;;;;;;21.45;69.50;96594.91;10438690;28;20083;-21
2022/06/26 09:08:00;;;;;;;2.53;1.67;;;;;;;21.47;69.63;96583.03;10411570;28;20563;-20
2022/06/26 09:13:01;;;;;;;2.87;1.70;;;;;;;21.60;69.86;96597.25;10405439;28;20069;-20
2022/06/26 09:18:04;;;;;;;4.00;1.97;;;;;;;21.20;65.50;96589.31;10419804;28;20290;-19
2022/06/26 09:23:06;;;;;;;3.00;1.95;;;;;;;21.41;71.07;96580.56;10417342;28;20025;-21
2022/06/26 09:28:09;;;;;;;4.35;2.22;;;;;;;21.44;70.40;96581.34;10405030;28;20036;-21
2022/06/26 09:33:09;;;;;;;3.00;2.10;;;;;;;21.35;69.87;96576.38;10424855;28;20124;-22
2022/06/26 09:38:10;;;;;;;3.13;1.33;;;;;;;21.33;69.70;96573.03;10425414;28;20064;-20
2022/06/26 09:43:14;;;;;;;3.50;1.83;;;;;;;21.34;69.44;96569.63;10393347;28;20092;-20
2022/06/26 09:48:16;;;;;;;2.53;1.58;;;;;;;21.33;69.83;96569.63;10436269;28;20052;-20
2022/06/26 09:53:18;;;;;;;2.30;1.92;;;;;;;21.20;68.21;96561.31;10424798;28;20040;-21
2022/06/26 09:58:19;;;;;;;4.30;2.33;;;;;;;21.33;69.48;96560.28;10406085;28;20041;-21
2022/06/26 10:08:42;;;;;;;2.30;2.10;;;;;;;21.60;70.33;96574.31;10378528;28;20038;-21
2022/06/26 10:13:43;;;;;;;13.40;2.00;;;;;;;21.37;66.98;96559.38;10372576;28;20047;-21
2022/06/26 10:19:01;;;;;;;4.35;1.60;;;;;;;21.21;64.99;96552.81;10443019;28;20044;-21
2022/06/26 10:24:03;;;;;;;2.65;1.52;;;;;;;21.21;66.12;96549.44;10442061;28;20033;-20
2022/06/26 10:29:04;;;;;;;3.92;2.10;;;;;;;21.41;66.74;96544.91;10418747;28;20045;-20
2022/06/26 10:34:31;;;;;;;4.68;1.98;;;;;;;21.04;64.91;96543.72;10434884;28;20033;-18
2022/06/26 10:39:45;;;;;;;;;;;;;;;20.91;64.74;96537.09;10426978;28;20419;-17
2022/06/26 10:44:54;;;;;;;1.80;1.70;;;;;;;21.24;69.93;96531.56;10403735;28;20380;-16
2022/06/26 10:49:55;;;;;;;3.90;1.50;;;;;;;21.56;70.05;96542.13;10450142;28;20048;-21
2022/06/26 10:54:57;;;;;;;3.33;1.70;;;;;;;21.55;67.30;96523.44;10375867;28;20056;-19
2022/06/26 10:59:59;;;;;;;8.20;2.50;;;;;;;21.57;66.56;96521.72;10369265;28;20037;-17
2022/06/26 11:05:01;;;;;;;4.00;1.60;;;;;;;21.42;66.59;96519.41;10423375;28;20479;-22
2022/06/26 11:10:02;;;;;;;3.92;1.73;;;;;;;21.19;64.84;96513.78;10389616;28;20048;-19
2022/06/26 11:15:02;;;;;;;4.60;1.58;;;;;;;20.96;64.63;96495.44;10367551;28;20069;-18
2022/06/26 11:25:23;;;;;;;1.88;1.40;;;;;;;21.35;68.93;96489.81;10367857;28;20034;-20
2022/06/26 11:30:23;;;;;;;3.60;2.15;;;;;;;21.29;65.45;96478.88;10392666;28;20033;-20
2022/06/26 11:35:25;;;;;;;2.10;1.80;;;;;;;21.10;69.30;96473.19;10396806;28;20489;-23
2022/06/26 11:40:25;;;;;;;2.65;2.05;;;;;;;21.19;67.37;96467.97;10410347;28;20300;-20
2022/06/26 11:45:26;;;;;;;1.77;1.60;;;;;;;21.63;70.30;96474.94;10387493;28;20136;-19
2022/06/26 11:50:32;;;;;;;2.42;1.35;;;;;;;21.65;66.70;96473.22;10404131;28;20481;-20
2022/06/26 11:55:42;;;;;;;1.48;1.38;;;;;;;21.57;69.60;96460.56;10415147;28;20037;-20
2022/06/26 12:00:44;;;;;;;1.65;1.30;;;;;;;21.71;68.24;96468.88;10415107;28;20038;-23
2022/06/26 12:05:45;;;;;;;1.75;1.45;;;;;;;21.43;67.25;96447.22;10407801;28;20480;-22
2022/06/26 12:10:49;;;;;;;1.77;1.38;;;;;;;21.70;69.50;96451.91;10405954;28;20116;-18
2022/06/26 12:15:49;;;;;;;3.05;1.85;;;;;;;21.34;67.08;96439.72;10400605;28;20072;-21
2022/06/26 12:20:50;;;;;;;1.75;1.50;;;;;;;21.40;66.73;96447.25;10404198;28;20041;-20
2022/06/26 12:25:51;;;;;;;2.17;1.25;;;;;;;21.28;67.75;96442.38;10403051;28;20082;-21
2022/06/26 12:30:51;;;;;;;3.37;1.63;;;;;;;22.00;69.51;96446.28;10427245;28;20618;-21
2022/06/26 12:35:52;;;;;;;2.80;2.00;;;;;;;21.77;67.76;96439.88;10419344;28;20033;-21
2022/06/26 12:40:54;;;;;;;3.78;1.40;;;;;;;21.99;69.25;96448.84;10434311;28;20457;-21
2022/06/26 12:45:54;;;;;;;1.77;1.50;;;;;;;21.94;67.74;96454.03;10421692;28;20029;-22
2022/06/26 12:50:54;;;;;;;2.42;1.70;;;;;;;22.12;68.55;96445.19;10425373;28;20086;-21
2022/06/26 12:55:57;;;;;;;1.97;1.77;;;;;;;21.83;68.60;96437.22;10431292;28;20033;-19
2022/06/26 13:00:57;;;;;;;2.28;2.08;;;;;;;22.12;69.25;96435.84;10418641;28;20408;-20
2022/06/26 13:05:58;;;;;;;4.70;2.53;;;;;;;21.88;66.29;96431.19;10394082;28;20037;-21
2022/06/26 13:11:23;;;;;;;2.00;1.55;;;;;;;21.41;65.19;96418.38;10399481;28;20061;-19
2022/06/26 13:16:19;;;;;;;3.05;2.25;;;;;;;21.92;69.95;96417.53;10419564;28;20491;-20
2022/06/26 13:21:20;;;;;;;2.30;1.83;;;;;;;21.98;69.66;96422.50;10428917;28;20041;-21
2022/06/26 13:26:20;;;;;;;3.88;1.80;;;;;;;21.94;66.77;96417.47;10404198;28;20064;-21
2022/06/26 13:31:21;;;;;;;4.88;1.67;;;;;;;22.02;67.34;96413.94;10414266;28;20037;-21
2022/06/26 13:36:21;;;;;;;2.00;1.70;;;;;;;22.38;68.87;96405.56;10409269;28;20437;-23
2022/06/26 13:41:21;;;;;;;2.00;1.80;;;;;;;22.28;69.47;96409.19;10371951;28;20578;-25
2022/06/26 13:46:22;;;;;;;1.93;1.67;;;;;;;21.84;67.69;96403.22;10370795;28;20041;-23
2022/06/26 13:51:22;;;;;;;1.47;1.30;;;;;;;21.44;65.20;96408.16;10378391;28;20083;-22
2022/06/26 13:56:23;;;;;;;1.90;1.70;;;;;;;21.96;68.85;96398.75;10371019;28;20501;-22
2022/06/26 14:01:24;;;;;;;1.75;1.65;;;;;;;22.09;70.15;96402.75;10371772;28;20092;-21
2022/06/26 14:06:25;;;;;;;2.90;1.40;;;;;;;21.64;66.89;96395.91;10381287;28;20034;-21
2022/06/26 14:11:25;;;;;;;2.33;1.67;;;;;;;22.05;69.41;96383.28;10410709;28;20041;-20
2022/06/26 14:16:25;;;;;;;2.63;1.70;;;;;;;22.09;69.84;96384.91;10370296;28;20030;-22
2022/06/26 14:21:26;;;;;;;1.93;1.73;;;;;;;22.50;68.17;96387.47;10371455;28;20037;-22
2022/06/26 14:26:26;;;;;;;1.60;1.50;;;;;;;22.56;67.94;96397.56;10369923;28;20408;-22
2022/06/26 14:31:27;;;;;;;2.90;1.50;;;;;;;22.21;68.51;96399.97;10370181;28;20296;-23
2022/06/26 14:36:28;;;;;;;1.90;1.70;;;;;;;22.65;66.82;96402.47;10384478;28;20034;-22
2022/06/26 14:41:28;;;;;;;3.03;1.40;;;;;;;22.24;67.83;96399.88;10369406;28;20042;-21
2022/06/26 14:46:30;;;;;;;4.20;1.52;;;;;;;22.47;67.07;96407.97;10368876;28;20080;-21
2022/06/26 14:51:31;;;;;;;1.75;1.20;;;;;;;22.11;67.50;96397.59;10379396;28;20103;-23
2022/06/26 14:56:31;;;;;;;2.90;1.30;;;;;;;22.37;66.02;96396.22;10409198;28;20042;-23
2022/06/26 15:01:32;;;;;;;2.85;1.35;;;;;;;22.02;65.36;96391.00;10408627;28;20044;-23
2022/06/26 15:06:32;;;;;;;3.47;1.40;;;;;;;22.38;66.63;96391.97;10405062;28;20120;-21
2022/06/26 15:11:33;;;;;;;4.43;1.33;;;;;;;22.04;66.43;96378.19;10368620;28;20041;-22
2022/06/26 15:16:33;;;;;;;3.33;1.40;;;;;;;22.11;67.58;96383.16;10368126;28;20069;-21
2022/06/26 15:21:33;;;;;;;1.67;1.17;;;;;;;21.85;65.01;96376.88;10383136;28;20033;-22
2022/06/26 15:26:34;;;;;;;1.50;1.20;;;;;;;21.82;68.37;96380.31;10436828;28;20031;-20
2022/06/26 15:31:34;;;;;;;1.57;1.30;;;;;;;21.63;64.91;96366.19;10390963;28;20033;-21
2022/06/26 15:36:35;;;;;;;2.70;1.10;;;;;;;21.49;65.50;96357.94;10411498;28;20124;-25
2022/06/26 15:41:35;;;;;;;1.27;1.17;;;;;;;21.35;65.39;96357.38;10421183;28;20034;-22
2022/06/26 15:46:35;;;;;;;2.30;1.33;;;;;;;21.33;67.89;96348.94;10420879;28;20462;-21
2022/06/26 15:51:36;;;;;;;3.93;1.90;;;;;;;21.31;65.53;96348.09;10426033;28;20045;-22
2022/06/26 15:56:36;;;;;;;2.10;1.20;;;;;;;21.74;66.91;96356.69;10406298;28;20508;-21
2022/06/26 16:01:37;;;;;;;2.60;1.30;;;;;;;21.71;68.90;96346.56;10367595;28;20609;-20
2022/06/26 16:06:37;;;;;;;2.53;1.40;;;;;;;21.70;67.83;96344.88;10388088;28;20408;-21
2022/06/26 16:11:38;;;;;;;1.50;1.30;;;;;;;21.38;64.62;96338.66;10406439;28;20061;-21
2022/06/26 16:16:38;;;;;;;1.88;1.08;;;;;;;21.34;66.49;96327.69;10366254;28;20045;-21
2022/06/26 16:21:39;;;;;;;1.73;1.40;;;;;;;21.39;66.29;96328.41;10366265;28;20525;-21
2022/06/26 16:26:39;;;;;;;1.57;1.20;;;;;;;21.29;64.42;96326.09;10365929;28;20396;-21
2022/06/26 16:31:39;;;;;;;1.30;1.20;;;;;;;21.34;64.31;96304.75;10365073;28;20455;-21
2022/06/26 16:36:40;;;;;;;1.95;1.23;;;;;;;21.38;67.26;96308.91;10366443;28;20056;-22
2022/06/26 16:41:40;;;;;;;1.63;1.40;;;;;;;21.53;65.45;96303.56;10365737;28;20041;-20
2022/06/26 16:46:41;;;;;;;1.40;1.10;;;;;;;21.38;63.59;96301.28;10365461;28;20030;-23
2022/06/26 16:51:41;;;;;;;1.17;1.07;;;;;;;21.20;63.72;96293.13;10388970;28;20037;-21
2022/06/26 16:56:41;;;;;;;1.20;1.10;;;;;;;21.17;64.10;96296.59;10377018;28;20296;-22
2022/06/26 17:01:42;;;;;;;1.60;1.40;;;;;;;21.12;64.13;96285.63;10387260;28;20034;-21
2022/06/26 17:06:42;;;;;;;4.68;1.40;;;;;;;21.10;64.36;96283.97;10388271;28;20030;-21
2022/06/26 17:11:43;;;;;;;2.70;1.40;;;;;;;21.08;64.04;96285.69;10366020;28;20038;-21
2022/06/26 17:16:43;;;;;;;2.47;1.20;;;;;;;21.05;64.29;96276.41;10365131;28;20042;-21
2022/06/26 17:21:44;;;;;;;3.80;1.52;;;;;;;21.29;65.06;96278.53;10373197;28;20051;-20
2022/06/26 17:26:44;;;;;;;2.77;1.80;;;;;;;21.47;64.71;96269.72;10439391;28;20086;-20
2022/06/26 17:31:46;;;;;;;1.37;1.10;;;;;;;21.25;63.50;96264.19;10372874;28;20064;-21
2022/06/26 17:36:46;;;;;;;1.25;1.08;;;;;;;21.14;63.79;96258.44;10373169;28;20065;-21
2022/06/26 17:41:47;;;;;;;1.27;1.17;;;;;;;21.10;63.75;96261.06;10372058;28;20048;-21
2022/06/26 17:46:47;;;;;;;2.20;0.97;;;;;;;21.07;64.01;96250.94;10370987;28;20058;-21
2022/06/26 17:51:47;;;;;;;1.50;1.40;;;;;;;21.04;64.15;96251.81;10372590;28;20296;-21
2022/06/26 17:56:48;;;;;;;1.63;1.07;;;;;;;21.04;63.93;96244.19;10370959;28;20030;-20
2022/06/26 18:01:48;;;;;;;3.93;1.30;;;;;;;21.02;63.79;96245.94;10371008;28;20280;-22
2022/06/26 18:06:49;;;;;;;4.07;1.53;;;;;;;21.32;65.00;96240.25;10395170;28;20040;-21
2022/06/26 18:11:50;;;;;;;3.03;1.30;;;;;;;21.42;64.01;96231.59;10371014;28;20069;-20
2022/06/26 18:16:50;;;;;;;0.83;0.83;;;;;;;21.20;63.60;96225.22;10370651;28;20072;-21
2022/06/26 18:21:50;;;;;;;1.77;1.00;;;;;;;21.10;63.63;96211.00;10370516;28;20316;-22
2022/06/26 18:26:51;;;;;;;2.03;1.40;;;;;;;21.06;63.82;96206.81;10369856;28;20033;-22
2022/06/26 18:31:51;;;;;;;1.70;0.97;;;;;;;21.04;63.86;96213.66;10370056;28;20287;-22
2022/06/26 18:36:52;;;;;;;1.07;1.00;;;;;;;21.04;64.13;96213.66;10383456;28;20300;-21
2022/06/26 18:41:52;;;;;;;1.88;1.10;;;;;;;21.03;63.97;96200.94;10369686;28;20300;-21
2022/06/26 18:46:54;;;;;;;4.87;1.47;;;;;;;21.09;65.89;96199.13;10369648;28;20052;-20
2022/06/26 18:51:54;;;;;;;1.55;0.90;;;;;;;21.36;64.42;96192.66;10375160;28;20207;-23
2022/06/26 18:56:54;;;;;;;2.90;0.97;;;;;;;21.39;63.50;96177.34;10368504;28;20407;-21
2022/06/26 19:01:56;;;;;;;1.10;1.00;;;;;;;21.20;63.32;96179.41;10408129;28;20298;-20
2022/06/26 19:06:56;;;;;;;1.08;0.98;;;;;;;21.11;63.50;96173.63;10414819;28;20029;-21
2022/06/26 19:17:19;;;;;;;2.20;1.00;;;;;;;21.03;63.59;96143.25;10363196;28;20408;-21
2022/06/26 19:22:22;;;;;;;1.23;1.00;;;;;;;21.03;64.35;96127.13;10365065;28;20419;-21
2022/06/26 19:27:23;;;;;;;2.53;1.25;;;;;;;20.96;63.90;96100.97;10397256;28;20091;-20
2022/06/26 19:32:23;;;;;;;1.73;1.27;;;;;;;21.32;64.58;96115.50;10362852;28;20512;-21
2022/06/26 19:37:24;;;;;;;2.05;0.90;;;;;;;21.43;63.25;96095.75;10400002;28;20136;-20
2022/06/26 19:42:26;;;;;;;1.20;0.90;;;;;;;21.23;63.37;96092.78;10394335;28;20046;-21
2022/06/26 19:47:29;;;;;;;0.90;0.90;;;;;;;21.13;63.35;96105.75;10399047;28;20037;-20
2022/06/26 19:52:30;;;;;;;2.10;1.05;;;;;;;21.07;63.43;96119.41;10389129;28;20524;-23
2022/06/26 19:57:30;;;;;;;1.20;0.70;;;;;;;21.04;63.10;96114.38;10391632;28;20133;-23
2022/06/26 20:02:31;;;;;;;0.83;0.63;;;;;;;21.03;63.49;96125.44;10399800;28;20045;-25
2022/06/26 20:07:32;;;;;;;0.63;0.63;;;;;;;21.01;63.49;96127.19;10392404;28;20104;-22
2022/06/26 20:12:32;;;;;;;1.35;1.20;;;;;;;21.04;63.72;96131.38;10395070;28;20296;-21
2022/06/26 20:17:33;;;;;;;2.20;1.20;;;;;;;21.32;64.12;96133.31;10401798;28;20140;-23
2022/06/26 20:22:33;;;;;;;1.20;0.93;;;;;;;21.40;62.96;96123.00;10392188;28;20037;-21
2022/06/26 20:27:34;;;;;;;1.63;0.70;;;;;;;21.21;63.21;96134.44;10389544;28;20029;-21
2022/06/26 20:32:34;;;;;;;1.48;1.20;;;;;;;21.21;63.79;96145.44;10409077;28;20102;-20
2022/06/26 20:37:35;;;;;;;1.10;0.90;;;;;;;21.10;63.62;96147.34;10406887;28;20029;-21
2022/06/26 20:42:36;;;;;;;0.73;0.73;;;;;;;21.09;63.78;96134.66;10400736;28;20073;-21
2022/06/26 20:47:37;;;;;;;0.80;0.80;;;;;;;21.08;63.81;96113.47;10369258;28;20269;-21
2022/06/26 20:52:37;;;;;;;0.82;0.57;;;;;;;21.05;63.65;96102.50;10374006;28;20058;-20
2022/06/26 20:57:38;;;;;;;3.63;1.20;;;;;;;21.04;65.41;96081.28;10376407;28;20034;-21
2022/06/26 21:02:39;;;;;;;1.17;1.08;;;;;;;21.36;65.34;96062.78;10374965;28;20240;-21
2022/06/26 21:07:40;;;;;;;0.95;0.70;;;;;;;21.40;63.85;96080.53;10388726;28;20096;-18
2022/06/26 21:12:40;;;;;;;1.17;0.90;;;;;;;21.21;63.24;96103.88;10373327;28;20477;-21
2022/06/26 21:17:41;;;;;;;3.13;0.77;;;;;;;21.13;63.45;96142.19;10403083;28;20033;-21
2022/06/26 21:22:41;;;;;;;1.13;0.90;;;;;;;21.08;63.64;96154.19;10416801;28;20076;-21
2022/06/26 21:27:42;;;;;;;1.55;0.98;;;;;;;21.07;63.49;96192.41;10372733;28;20034;-23
2022/06/26 21:32:44;;;;;;;1.85;1.40;;;;;;;21.09;63.59;96308.59;10371185;28;20049;-21
2022/06/26 21:37:46;;;;;;;1.30;1.17;;;;;;;21.13;64.04;96380.66;10386264;28;20041;-21
2022/06/26 21:42:46;;;;;;;3.17;1.80;;;;;;;21.14;67.22;96412.91;10371570;28;20528;-21
2022/06/26 21:47:47;;;;;;;1.40;1.20;;;;;;;21.39;65.59;96399.72;10372412;28;20045;-20
2022/06/26 21:52:50;;;;;;;0.73;0.73;;;;;;;21.44;64.28;96425.97;10398866;28;20057;-21
2022/06/26 21:57:51;;;;;;;0.90;0.90;;;;;;;21.29;63.67;96445.75;10404582;28;20033;-21
2022/06/26 22:03:03;;;;;;;2.47;0.90;;;;;;;21.12;63.40;96395.09;10376934;28;20034;-20
2022/06/26 22:08:04;;;;;;;3.70;0.98;;;;;;;21.09;63.81;96381.56;10403290;28;20022;-20
2022/06/26 22:13:06;;;;;;;1.20;1.10;;;;;;;21.06;63.56;96339.16;10370520;28;20064;-22
2022/06/26 22:18:06;;;;;;;1.10;1.00;;;;;;;21.03;63.53;96341.78;10370015;28;20042;-21
2022/06/26 22:23:07;;;;;;;0.60;0.60;;;;;;;21.02;63.61;96360.47;10370270;28;20419;-20
2022/06/26 22:28:07;;;;;;;1.00;1.00;;;;;;;21.01;63.59;96351.16;10371066;28;20552;-21
2022/06/26 22:33:08;;;;;;;1.77;1.20;;;;;;;21.28;65.10;96307.41;10369718;28;20045;-21
2022/06/26 22:38:08;;;;;;;0.67;0.67;;;;;;;21.40;63.87;96301.25;10399742;28;20041;-21
2022/06/26 22:43:09;;;;;;;0.70;0.70;;;;;;;21.25;63.31;96287.09;10418638;28;20558;-20
2022/06/26 22:48:09;;;;;;;0.60;0.57;;;;;;;21.13;63.27;96266.09;10370507;28;20041;-21
2022/06/26 22:53:09;;;;;;;0.57;0.57;;;;;;;21.09;63.28;96313.69;10392544;28;20060;-21
2022/06/26 22:58:10;;;;;;;1.30;0.67;;;;;;;21.08;63.49;96426.56;10400696;28;20025;-21
2022/06/26 23:03:10;;;;;;;1.43;1.07;;;;;;;21.16;63.66;96546.09;10409340;28;20327;-21
2022/06/26 23:08:11;;;;;;;0.68;0.68;;;;;;;21.15;64.25;96682.72;10407146;28;20124;-24
2022/06/26 23:13:11;;;;;;;0.63;0.60;;;;;;;21.13;63.82;96666.63;10391564;28;20496;-22
2022/06/26 23:18:11;;;;;;;0.60;0.60;;;;;;;21.27;65.47;96514.53;10384483;28;20029;-20
2022/06/26 23:23:12;;;;;;;2.05;0.95;;;;;;;21.40;64.63;96442.16;10408719;28;20590;-21
2022/06/26 23:28:12;;;;;;;0.70;0.70;;;;;;;21.30;63.28;96483.91;10377653;28;20060;-21
2022/06/26 23:33:13;;;;;;;1.90;0.70;;;;;;;21.20;63.32;96518.03;10378146;28;20060;-20
2022/06/26 23:38:13;;;;;;;1.25;0.68;;;;;;;21.11;63.25;96505.41;10405904;28;20526;-22
2022/06/26 23:43:14;;;;;;;1.60;0.60;;;;;;;21.05;63.44;96481.75;10394572;28;20488;-21